Time;durP1;ratioP1;P1;durP2;ratioP2;P2;SDS_P1;SDS_P2;PMS_P1;PMS_P2;Temp;Humidity;BMP_temperature;BMP_pressure;BME280_temperature;BME280_humidity;BME280_pressure;Samples;Min_cycle;Max_cycle;Signal;HPM_P1;HPM_P2
2022/07/25 00:02:27;;;;;;;1.77;0.67;;;;;;;22.56;74.30;100085.94;4945670;29;20066;-87
2022/07/25 00:04:58;;;;;;;6.33;0.80;;;;;;;22.89;73.55;100102.34;4943507;29;20055;-86
2022/07/25 00:07:29;;;;;;;4.87;1.23;;;;;;;23.05;73.76;100079.03;4944484;29;20126;-89
2022/07/25 00:10:00;;;;;;;6.20;1.20;;;;;;;23.36;73.00;100106.97;4942455;29;20051;-87
2022/07/25 00:12:33;;;;;;;1.33;0.60;;;;;;;23.35;70.58;100104.44;4944569;29;20107;-87
2022/07/25 00:15:03;;;;;;;5.57;0.90;;;;;;;23.41;72.57;100101.31;4941941;29;20119;-86
2022/07/25 00:17:34;;;;;;;2.13;0.90;;;;;;;23.29;71.31;100062.22;4942456;29;20044;-87
2022/07/25 00:20:06;;;;;;;2.60;0.87;;;;;;;23.56;71.60;100097.53;4943685;29;20106;-84
2022/07/25 00:22:36;;;;;;;11.23;2.20;;;;;;;23.56;71.32;100089.53;4943789;29;20047;-84
2022/07/25 00:25:08;;;;;;;3.20;1.20;;;;;;;23.74;71.39;100099.84;4943618;29;20047;-84
2022/07/25 00:27:43;;;;;;;2.93;1.27;;;;;;;23.76;69.76;100092.59;4924411;29;20095;-84
2022/07/25 00:30:15;;;;;;;2.37;1.00;;;;;;;23.94;69.27;100099.22;4942139;29;20058;-85
2022/07/25 00:32:45;;;;;;;3.13;1.20;;;;;;;23.76;66.18;100095.25;4943341;29;20119;-84
2022/07/25 00:35:16;;;;;;;4.57;1.20;;;;;;;23.83;67.77;100093.84;4939692;29;20147;-85
2022/07/25 00:37:46;;;;;;;4.10;1.33;;;;;;;23.86;69.43;100077.59;4939279;29;20250;-83
2022/07/25 00:40:22;;;;;;;1.17;1.00;;;;;;;24.09;67.73;100076.72;4943609;29;20059;-86
2022/07/25 00:42:54;;;;;;;2.63;1.17;;;;;;;24.24;66.54;100092.56;4942230;29;20056;-89
2022/07/25 00:45:25;;;;;;;3.97;1.30;;;;;;;24.36;67.34;100094.25;4943815;29;20052;-88
2022/07/25 00:47:56;;;;;;;11.37;1.70;;;;;;;24.16;67.27;100053.06;4943857;29;20039;-86
2022/07/25 00:50:26;;;;;;;2.97;1.27;;;;;;;24.37;67.11;100092.47;4943635;29;20051;-85
2022/07/25 00:52:57;;;;;;;3.70;1.30;;;;;;;24.60;67.32;100104.91;4943838;29;20047;-85
2022/07/25 00:55:29;;;;;;;9.10;1.30;;;;;;;24.47;66.12;100078.31;4944168;29;20114;-88
2022/07/25 00:58:01;;;;;;;2.23;1.37;;;;;;;24.57;63.46;100104.31;4943822;29;20056;-86
2022/07/25 01:00:33;;;;;;;5.53;1.10;;;;;;;24.51;66.98;100093.13;4943877;29;20050;-87
2022/07/25 01:03:04;;;;;;;4.67;1.23;;;;;;;24.62;66.23;100107.47;4943824;29;20074;-88
2022/07/25 01:05:34;;;;;;;1.53;1.20;;;;;;;24.64;66.37;100108.22;4943755;29;20055;-86
2022/07/25 01:08:06;;;;;;;5.33;1.10;;;;;;;24.34;65.69;100048.16;4943827;29;20111;-88
2022/07/25 01:10:37;;;;;;;2.93;1.07;;;;;;;24.79;66.44;100104.34;4943578;29;20051;-88
2022/07/25 01:13:09;;;;;;;5.97;1.90;;;;;;;24.88;66.49;100103.59;4943610;29;20048;-87
2022/07/25 01:15:40;;;;;;;3.40;1.50;;;;;;;24.87;65.39;100091.22;4943928;29;20093;-85
2022/07/25 01:18:10;;;;;;;3.67;1.37;;;;;;;25.05;66.26;100088.06;4933431;29;20052;-87
2022/07/25 01:20:43;;;;;;;8.57;1.67;;;;;;;25.24;65.59;100108.88;4943684;29;20335;-87
2022/07/25 01:23:14;;;;;;;12.50;1.67;;;;;;;25.18;63.94;100099.50;4943654;29;20059;-86
2022/07/25 01:25:44;;;;;;;3.27;1.20;;;;;;;25.04;63.75;100073.00;4943630;29;20054;-87
2022/07/25 01:28:15;;;;;;;4.13;1.20;;;;;;;25.08;62.65;100085.97;4943353;29;20123;-87
2022/07/25 01:30:46;;;;;;;5.23;1.20;;;;;;;24.81;62.30;100081.03;4943073;29;20064;-84
2022/07/25 01:33:17;;;;;;;5.03;1.43;;;;;;;25.00;65.42;100079.56;4943331;29;20103;-84
2022/07/25 01:35:50;;;;;;;4.50;1.40;;;;;;;25.11;65.64;100058.16;4943144;29;20054;-86
2022/07/25 01:38:21;;;;;;;2.60;1.27;;;;;;;25.35;64.34;100085.63;4943116;29;20271;-85
2022/07/25 01:40:52;;;;;;;3.83;1.40;;;;;;;25.43;64.49;100078.81;4943224;29;20103;-84
2022/07/25 01:43:23;;;;;;;4.60;1.30;;;;;;;25.57;65.02;100086.56;4943327;29;20061;-85
2022/07/25 01:45:54;;;;;;;2.67;1.20;;;;;;;25.69;64.62;100077.53;4943274;29;20150;-86
2022/07/25 01:48:24;;;;;;;2.13;1.30;;;;;;;25.89;64.52;100083.94;4946676;29;20343;-86
2022/07/25 01:50:57;;;;;;;2.83;1.13;;;;;;;25.66;62.89;100058.19;4947135;29;20067;-84
2022/07/25 01:53:28;;;;;;;1.90;1.20;;;;;;;25.79;62.93;100073.09;4947348;29;20055;-86
2022/07/25 01:55:59;;;;;;;2.90;1.23;;;;;;;25.80;62.33;100063.25;4947063;29;20050;-85
2022/07/25 01:58:34;;;;;;;2.47;1.40;;;;;;;25.43;63.14;99996.72;4947195;29;20064;-86
2022/07/25 02:01:05;;;;;;;2.77;1.20;;;;;;;26.10;62.89;100069.72;4946824;29;20048;-85
2022/07/25 02:03:36;;;;;;;17.27;2.10;;;;;;;25.58;62.08;99983.91;4946937;29;20137;-85
2022/07/25 02:06:09;;;;;;;2.77;1.23;;;;;;;26.11;60.26;100061.56;4942613;28;20051;-84
2022/07/25 04:46:04;;;;;;;7.20;1.73;;;;;;;26.85;57.48;99980.16;5102254;28;20044;-56
2022/07/25 05:45:10;;;;;;;3.83;1.00;;;;;;;26.79;55.99;99943.19;5699329;23;20310;-80
2022/07/25 05:51:40;;;;;;;2.40;0.97;;;;;;;26.91;56.25;99942.09;4790768;29;20165;-79
2022/07/25 05:54:17;;;;;;;4.17;0.97;;;;;;;26.36;54.52;99909.44;4799922;29;20368;-78
2022/07/25 05:56:48;;;;;;;4.20;1.13;;;;;;;26.18;56.34;99928.81;4830895;29;20073;-78
2022/07/25 05:59:19;;;;;;;4.93;1.30;;;;;;;25.93;57.61;99897.13;4859386;29;20320;-78
2022/07/25 06:01:52;;;;;;;1.63;0.90;;;;;;;26.02;57.06;99955.25;4869941;29;20087;-77
2022/07/25 06:04:23;;;;;;;2.97;1.20;;;;;;;25.90;57.29;99940.22;4870077;29;20117;-78
2022/07/25 06:06:56;;;;;;;3.33;1.10;;;;;;;25.61;57.57;99900.72;4869903;29;20080;-79
2022/07/25 06:09:57;;;;;;;4.50;1.20;;;;;;;26.05;57.68;99933.56;4849260;29;20058;-79
2022/07/25 06:12:28;;;;;;;3.27;1.20;;;;;;;26.42;53.73;99951.78;4851344;29;20050;-81
2022/07/25 06:14:59;;;;;;;4.00;1.20;;;;;;;26.13;53.72;99904.28;4851357;29;20293;-78
2022/07/25 06:17:31;;;;;;;13.50;1.57;;;;;;;26.54;54.66;99961.44;4846060;29;20266;-78
2022/07/25 06:20:02;;;;;;;11.20;1.87;;;;;;;26.53;55.49;99916.88;4851290;29;20058;-78
2022/07/25 06:22:33;;;;;;;17.23;2.10;;;;;;;26.59;56.00;99894.91;4851200;29;20101;-77
2022/07/25 06:25:04;;;;;;;1.67;1.00;;;;;;;26.98;54.84;99932.50;4851297;29;20165;-78
2022/07/25 06:27:34;;;;;;;1.13;0.80;;;;;;;27.00;54.10;99957.34;4851198;29;20207;-78
2022/07/25 06:30:06;;;;;;;3.80;0.70;;;;;;;26.48;54.11;99908.38;4848952;29;20052;-79
2022/07/25 06:32:50;;;;;;;2.27;0.80;;;;;;;26.44;55.05;99912.31;4851866;29;20062;-78
2022/07/25 06:35:21;;;;;;;3.53;0.77;;;;;;;26.61;54.34;99951.91;4851883;29;20117;-79
2022/07/25 06:37:51;;;;;;;7.20;1.00;;;;;;;26.18;54.56;99883.28;4851525;29;20050;-79
2022/07/25 06:40:22;;;;;;;2.33;0.70;;;;;;;26.38;54.89;99912.84;4851358;29;20122;-79
2022/07/25 06:42:53;;;;;;;1.57;0.63;;;;;;;26.56;54.34;99959.50;4851122;29;20069;-80
2022/07/25 06:45:24;;;;;;;5.20;0.80;;;;;;;26.29;54.55;99924.38;4852140;29;20118;-80
2022/07/25 06:47:56;;;;;;;2.20;0.70;;;;;;;26.10;55.78;99874.25;4851396;29;20200;-80
2022/07/25 06:50:27;;;;;;;3.03;1.00;;;;;;;26.34;55.66;99924.81;4851845;29;20041;-79
2022/07/25 06:52:58;;;;;;;3.80;0.90;;;;;;;26.19;55.32;99930.53;4851388;29;20081;-80
2022/07/25 06:55:28;;;;;;;13.63;1.00;;;;;;;26.09;55.62;99920.75;4851399;29;20062;-79
2022/07/25 06:57:59;;;;;;;4.83;0.80;;;;;;;26.23;55.88;99945.38;4851546;29;20113;-80
2022/07/25 07:00:30;;;;;;;1.80;0.60;;;;;;;26.36;56.80;99952.31;4851396;29;20081;-80
2022/07/25 07:03:03;;;;;;;5.53;0.70;;;;;;;26.16;57.63;99908.50;4851019;29;20117;-79
2022/07/25 07:05:36;;;;;;;2.97;0.83;;;;;;;26.19;57.42;99930.53;4851257;29;20066;-80
2022/07/25 07:08:07;;;;;;;2.30;0.67;;;;;;;25.70;56.36;99859.78;4850120;29;20237;-80
2022/07/25 07:10:38;;;;;;;6.17;0.80;;;;;;;25.79;57.32;99877.75;4849806;29;20164;-79
2022/07/25 07:13:11;;;;;;;2.37;0.70;;;;;;;26.19;58.48;99935.88;4850520;29;20100;-80
2022/07/25 07:15:48;;;;;;;2.93;0.70;;;;;;;26.15;58.39;99913.03;4850982;29;20050;-80
2022/07/25 07:18:21;;;;;;;4.70;0.60;;;;;;;26.03;58.05;99882.84;4851028;29;20393;-80
2022/07/25 07:20:52;;;;;;;4.70;0.90;;;;;;;26.03;57.95;99904.25;4851071;29;20294;-81
2022/07/25 07:23:23;;;;;;;2.10;0.70;;;;;;;25.86;58.84;99891.47;4850806;29;20317;-80
2022/07/25 07:25:58;;;;;;;1.30;0.70;;;;;;;25.92;59.47;99890.09;4848116;29;20295;-80
2022/07/25 07:28:28;;;;;;;4.20;0.70;;;;;;;25.86;58.86;99879.91;4850681;29;20062;-80
2022/07/25 07:30:59;;;;;;;6.47;0.70;;;;;;;26.09;59.58;99921.59;4851101;29;20069;-80
2022/07/25 07:33:48;;;;;;;5.03;0.70;;;;;;;26.13;59.23;99931.06;4854111;29;20356;-81
2022/07/25 07:36:19;;;;;;;4.30;0.70;;;;;;;25.73;59.13;99872.91;4860989;29;20081;-81
2022/07/25 07:38:51;;;;;;;4.60;0.60;;;;;;;26.07;58.15;99933.44;4864686;29;20060;-81
2022/07/25 07:41:22;;;;;;;3.37;0.83;;;;;;;25.79;59.14;99928.59;4860693;29;20066;-80
2022/07/25 07:43:53;;;;;;;1.87;0.70;;;;;;;25.65;59.54;99936.94;4869116;29;20356;-80
2022/07/25 07:46:23;;;;;;;3.80;0.80;;;;;;;25.34;59.47;99891.38;4868859;29;20061;-80
2022/07/25 07:48:56;;;;;;;2.73;1.20;;;;;;;25.64;59.31;99943.28;4869066;29;20053;-81
2022/07/25 07:51:27;;;;;;;2.37;1.03;;;;;;;25.37;59.95;99907.16;4868977;29;20081;-81
2022/07/25 07:56:45;;;;;;;10.37;1.23;;;;;;;25.16;59.88;99901.78;4868547;29;20092;-80
2022/07/25 07:59:16;;;;;;;6.53;0.90;;;;;;;25.25;60.02;99928.72;4868935;29;20056;-81
2022/07/25 08:01:47;;;;;;;4.10;0.80;;;;;;;25.03;59.09;99919.75;4869132;29;20080;-81
2022/07/25 08:04:24;;;;;;;5.63;0.90;;;;;;;24.89;59.88;99923.59;4868871;29;20049;-81
2022/07/25 08:06:59;;;;;;;5.82;1.05;;;;;;;25.03;60.42;99961.69;4868960;29;20125;-81
2022/07/25 08:09:29;;;;;;;4.00;0.80;;;;;;;24.74;60.67;99930.19;4868708;29;20054;-81
2022/07/25 08:12:00;;;;;;;4.00;0.80;;;;;;;24.53;60.50;99922.91;4868954;29;20390;-80
2022/07/25 08:14:31;;;;;;;4.90;0.90;;;;;;;24.51;61.23;99913.31;4868510;29;20120;-82
2022/07/25 08:17:02;;;;;;;3.10;1.10;;;;;;;24.49;61.31;99932.16;4864326;29;20058;-81
2022/07/25 08:19:35;;;;;;;3.90;0.90;;;;;;;24.61;61.20;99959.72;4866984;29;20049;-81
2022/07/25 08:22:06;;;;;;;6.57;0.90;;;;;;;24.18;61.24;99908.81;4868832;29;20121;-82
2022/07/25 08:24:37;;;;;;;2.10;0.60;;;;;;;24.25;60.95;99929.56;4867849;29;20049;-79
2022/07/25 08:27:08;;;;;;;0.93;0.53;;;;;;;24.05;61.86;99933.78;4867792;29;20060;-81
2022/07/25 08:29:38;;;;;;;3.70;1.00;;;;;;;23.94;62.06;99947.13;4865510;29;20116;-80
2022/07/25 08:32:09;;;;;;;5.10;0.90;;;;;;;23.78;62.81;99947.44;4868751;29;20329;-80
2022/07/25 08:34:41;;;;;;;1.67;0.87;;;;;;;23.91;63.19;99982.03;4868686;29;20092;-80
2022/07/25 08:37:12;;;;;;;5.03;0.90;;;;;;;23.89;63.66;99986.66;4867625;29;20057;-81
2022/07/25 08:39:43;;;;;;;8.57;1.73;;;;;;;23.56;64.14;99932.19;4867605;29;20049;-81
2022/07/25 08:42:14;;;;;;;2.57;0.93;;;;;;;23.69;63.64;99948.97;4867923;29;20081;-81
2022/07/25 08:44:50;;;;;;;19.17;1.80;;;;;;;23.63;64.08;99960.09;4868695;29;20116;-81
2022/07/25 08:47:21;;;;;;;3.30;0.70;;;;;;;23.73;63.74;99980.78;4868510;29;20208;-81
2022/07/25 08:49:57;;;;;;;8.23;0.80;;;;;;;23.44;64.39;99976.66;4865931;29;20050;-81
2022/07/25 08:52:34;;;;;;;4.33;0.80;;;;;;;23.57;64.34;100002.41;4867733;29;20278;-82
2022/07/25 08:55:06;;;;;;;6.20;1.00;;;;;;;23.48;64.61;100003.91;4867982;29;20295;-82
2022/07/25 08:57:42;;;;;;;4.13;1.00;;;;;;;23.41;65.19;99997.34;4866322;29;20096;-81
2022/07/25 09:00:15;;;;;;;8.60;1.07;;;;;;;23.38;64.94;100003.75;4858993;29;20611;-82
2022/07/25 09:02:53;;;;;;;6.20;1.20;;;;;;;23.34;64.97;99996.09;4868722;29;20045;-82
2022/07/25 09:05:27;;;;;;;9.53;1.10;;;;;;;23.24;65.49;99991.44;4871710;29;20053;-82
2022/07/25 09:07:58;;;;;;;11.70;1.10;;;;;;;23.36;65.32;100026.16;4870619;29;20102;-81
2022/07/25 09:10:31;;;;;;;3.97;0.90;;;;;;;22.86;65.10;99990.69;4871414;29;20054;-81
2022/07/25 09:13:06;;;;;;;2.97;0.80;;;;;;;22.68;65.81;99992.84;4869507;29;20407;-82
2022/07/25 09:15:40;;;;;;;2.70;0.90;;;;;;;22.52;66.15;99982.44;4870946;29;20116;-80
2022/07/25 09:18:13;;;;;;;8.27;1.47;;;;;;;22.19;67.02;99965.19;4871333;29;20085;-81
2022/07/25 09:20:49;;;;;;;4.70;1.13;;;;;;;22.08;66.81;99987.19;4868826;29;20345;-81
2022/07/25 09:23:32;;;;;;;6.27;1.00;;;;;;;22.08;67.70;100032.41;4871519;29;20109;-81
2022/07/25 09:26:05;;;;;;;2.90;0.87;;;;;;;21.49;68.38;99977.00;4871685;29;20120;-80
2022/07/25 09:28:41;;;;;;;3.23;0.80;;;;;;;21.51;68.74;100006.97;4866059;29;20058;-80
2022/07/25 09:31:13;;;;;;;5.00;1.00;;;;;;;21.32;69.11;100017.09;4864331;29;20112;-80
2022/07/25 09:33:48;;;;;;;5.03;0.80;;;;;;;21.02;69.78;100003.97;4869568;29;20321;-81
2022/07/25 09:36:20;;;;;;;9.93;1.10;;;;;;;20.72;70.49;99986.38;4871376;29;20606;-80
2022/07/25 09:38:54;;;;;;;1.87;0.90;;;;;;;20.64;71.53;100026.69;4871245;29;20310;-81
2022/07/25 09:41:35;;;;;;;1.67;1.00;;;;;;;20.46;71.91;100033.06;4871361;29;20290;-81
2022/07/25 09:44:16;;;;;;;4.00;1.30;;;;;;;20.25;72.69;100020.16;4871380;29;20301;-81
2022/07/25 09:46:47;;;;;;;5.77;1.10;;;;;;;20.44;73.35;100072.09;4869277;29;20302;-81
2022/07/25 09:49:20;;;;;;;1.73;1.00;;;;;;;20.20;73.67;100059.38;4870937;29;20302;-80
2022/07/25 09:51:53;;;;;;;3.03;1.00;;;;;;;19.75;74.60;100025.81;4871131;29;20354;-81
2022/07/25 09:54:24;;;;;;;5.10;1.20;;;;;;;19.73;75.90;100076.28;4869789;29;20294;-80
2022/07/25 09:56:55;;;;;;;1.20;1.10;;;;;;;19.35;76.84;100066.00;4868675;29;20377;-81
2022/07/25 09:59:26;;;;;;;2.83;1.00;;;;;;;19.28;77.85;100075.25;4868248;29;20301;-81
2022/07/25 10:02:09;;;;;;;5.00;1.20;;;;;;;18.52;78.56;99983.16;4868155;29;20301;-81
2022/07/25 10:04:47;;;;;;;4.23;1.33;;;;;;;18.62;79.23;100032.91;4867386;29;20313;-81
2022/07/25 10:07:22;;;;;;;6.05;1.20;;;;;;;18.59;79.50;100027.78;4869426;29;20301;-82
2022/07/25 10:10:01;;;;;;;2.53;0.97;;;;;;;18.39;80.27;100032.34;4867936;29;20404;-81
2022/07/25 10:12:32;;;;;;;4.70;1.30;;;;;;;18.73;80.68;100088.78;4867225;29;20373;-80
2022/07/25 10:15:08;;;;;;;9.97;1.30;;;;;;;18.18;80.95;100020.25;4866031;29;20648;-80
2022/07/25 10:17:42;;;;;;;4.77;1.20;;;;;;;18.13;81.63;100024.94;4867529;29;20334;-80
2022/07/25 10:20:13;;;;;;;1.80;1.20;;;;;;;18.27;81.70;100048.84;4867561;29;20639;-80
2022/07/25 10:22:46;;;;;;;4.33;1.50;;;;;;;18.18;82.16;100044.06;4867589;29;20621;-81
2022/07/25 10:25:27;;;;;;;6.73;1.87;;;;;;;17.98;82.55;100029.22;4867686;29;20350;-80
2022/07/25 10:28:09;;;;;;;3.53;1.50;;;;;;;18.26;82.73;100089.47;4869921;29;20598;-80
2022/07/25 10:30:41;;;;;;;7.70;1.70;;;;;;;18.01;82.99;100058.97;4870939;29;20671;-81
2022/07/25 10:33:14;;;;;;;8.10;1.90;;;;;;;17.86;83.15;100043.88;4870439;29;20307;-81
2022/07/25 10:35:45;;;;;;;6.80;2.00;;;;;;;17.96;83.59;100082.13;4870809;29;20350;-81
2022/07/25 10:38:25;;;;;;;6.57;1.97;;;;;;;18.20;83.94;100132.09;4870892;29;20318;-81
2022/07/25 10:41:01;;;;;;;8.10;2.30;;;;;;;17.85;84.03;100102.97;4867715;29;20373;-81
2022/07/25 10:43:38;;;;;;;7.30;1.97;;;;;;;17.49;84.48;100064.16;4870734;29;20292;-81
2022/07/25 10:46:18;;;;;;;2.93;1.40;;;;;;;17.71;84.85;100094.81;4870051;29;20302;-81
2022/07/25 10:49:02;;;;;;;2.43;1.30;;;;;;;17.40;85.33;100077.81;4866213;29;20665;-81
2022/07/25 10:51:35;;;;;;;3.10;1.37;;;;;;;17.74;85.65;100129.03;4869180;29;20310;-81
2022/07/25 10:54:18;;;;;;;2.50;1.50;;;;;;;17.37;85.83;100080.59;4870712;29;20605;-80
2022/07/25 10:56:54;;;;;;;5.60;1.55;;;;;;;17.65;85.69;100136.47;4869301;29;20334;-82
2022/07/25 10:59:29;;;;;;;3.10;1.80;;;;;;;17.23;85.74;100066.25;4863275;29;20386;-81
2022/07/25 11:02:00;;;;;;;6.73;2.03;;;;;;;17.76;85.95;100158.88;4869105;29;20341;-81
2022/07/25 11:04:36;;;;;;;6.50;1.43;;;;;;;17.38;86.17;100111.38;4868257;29;20705;-81
2022/07/25 11:07:14;;;;;;;1.50;1.00;;;;;;;17.37;86.50;100109.63;4869328;29;20353;-82
2022/07/25 11:09:57;;;;;;;1.13;0.97;;;;;;;17.16;86.60;100093.88;4868875;29;20290;-81
2022/07/25 11:12:32;;;;;;;2.07;1.20;;;;;;;17.16;86.72;100115.00;4860894;29;20317;-82
2022/07/25 11:15:04;;;;;;;3.73;1.43;;;;;;;17.44;87.25;100167.38;4866225;29;20305;-83
2022/07/25 11:17:35;;;;;;;2.27;1.17;;;;;;;17.46;87.41;100173.44;4867619;29;20294;-82
2022/07/25 11:20:07;;;;;;;2.27;1.10;;;;;;;16.93;87.40;100088.78;4863436;29;20319;-82
2022/07/25 11:22:38;;;;;;;2.10;1.47;;;;;;;16.72;87.62;100067.66;4868658;29;20358;-82
2022/07/25 11:25:14;;;;;;;2.03;1.63;;;;;;;17.01;87.75;100135.03;4862518;29;20306;-82
2022/07/25 11:27:45;;;;;;;2.80;1.47;;;;;;;17.27;88.27;100182.28;4868305;29;20465;-83
2022/07/25 11:30:17;;;;;;;2.20;1.43;;;;;;;16.80;88.24;100094.63;4868348;29;20362;-83
2022/07/25 11:32:49;;;;;;;1.77;1.50;;;;;;;17.16;88.17;100159.03;4867863;29;20302;-83
2022/07/25 11:35:23;;;;;;;1.63;1.40;;;;;;;17.14;88.41;100177.56;4867519;29;20310;-81
2022/07/25 11:37:55;;;;;;;2.27;1.43;;;;;;;16.94;88.38;100132.72;4867141;29;20349;-83
2022/07/25 11:40:27;;;;;;;5.60;1.70;;;;;;;17.19;88.53;100172.06;4867684;29;20328;-81
2022/07/25 11:42:59;;;;;;;5.70;1.87;;;;;;;16.59;88.48;100074.44;4864150;29;20366;-83
2022/07/25 11:45:32;;;;;;;2.87;1.47;;;;;;;17.13;88.83;100169.72;4867042;29;20358;-85
2022/07/25 11:48:07;;;;;;;1.83;1.40;;;;;;;16.54;88.76;100071.13;4866234;29;20290;-83
2022/07/25 11:50:40;;;;;;;1.73;1.20;;;;;;;16.52;89.00;100083.53;4868187;29;20309;-86
2022/07/25 11:53:13;;;;;;;4.90;1.73;;;;;;;16.93;89.08;100144.22;4861079;29;20319;-85
2022/07/25 11:55:46;;;;;;;1.40;1.20;;;;;;;16.62;89.34;100105.94;4861057;29;20334;-84
2022/07/25 11:58:19;;;;;;;1.83;1.53;;;;;;;16.85;89.44;100148.97;4866774;29;20475;-85
2022/07/25 12:00:50;;;;;;;1.53;1.13;;;;;;;16.87;89.88;100147.97;4867699;29;20306;-83
2022/07/25 12:03:22;;;;;;;7.20;1.60;;;;;;;16.83;89.82;100150.84;4862270;29;20659;-83
2022/07/25 12:05:53;;;;;;;2.83;1.50;;;;;;;16.73;89.83;100130.09;4867571;29;20354;-83
2022/07/25 12:08:24;;;;;;;2.80;1.63;;;;;;;16.67;90.13;100130.34;4867823;29;20298;-83
2022/07/25 12:10:56;;;;;;;3.60;1.70;;;;;;;16.07;90.43;100055.59;4867676;29;20374;-82
2022/07/25 12:13:29;;;;;;;4.47;1.90;;;;;;;16.63;90.74;100155.16;4867952;29;20354;-83
2022/07/25 12:16:00;;;;;;;3.77;2.17;;;;;;;16.63;91.10;100171.00;4866732;29;20352;-83
2022/07/25 12:18:31;;;;;;;3.07;1.80;;;;;;;16.30;91.15;100100.31;4867609;29;20302;-83
2022/07/25 12:21:02;;;;;;;3.93;2.40;;;;;;;16.37;91.13;100101.75;4867433;29;20341;-83
2022/07/25 12:23:33;;;;;;;7.60;1.60;;;;;;;16.56;90.79;100143.16;4867483;29;20490;-83
2022/07/25 12:26:06;;;;;;;5.97;1.33;;;;;;;16.45;90.69;100155.91;4867096;29;20394;-83
2022/07/25 12:28:37;;;;;;;3.83;1.53;;;;;;;16.07;90.87;100108.31;4863346;29;20311;-83
2022/07/25 12:31:08;;;;;;;4.40;1.80;;;;;;;15.80;90.97;100066.38;4864982;29;20298;-83
2022/07/25 12:33:39;;;;;;;2.43;1.87;;;;;;;15.69;91.64;100065.91;4866396;29;20357;-83
2022/07/25 12:36:13;;;;;;;4.77;1.57;;;;;;;16.04;91.77;100137.44;4865073;29;20385;-83
2022/07/25 12:38:44;;;;;;;3.63;1.70;;;;;;;15.77;92.26;100110.41;4868056;29;20320;-84
2022/07/25 12:41:21;;;;;;;4.00;1.60;;;;;;;15.41;92.53;100068.81;4868120;29;20345;-83
2022/07/25 12:43:52;;;;;;;2.53;1.70;;;;;;;15.54;93.06;100094.56;4869390;29;20497;-83
2022/07/25 12:46:22;;;;;;;3.57;1.43;;;;;;;15.65;93.35;100127.53;4868595;29;20302;-83
2022/07/25 12:48:53;;;;;;;2.17;1.50;;;;;;;15.69;93.65;100134.41;4870947;29;20298;-83
2022/07/25 12:51:24;;;;;;;5.50;1.77;;;;;;;15.29;93.88;100096.44;4871103;29;20333;-83
2022/07/25 12:53:55;;;;;;;3.63;1.57;;;;;;;15.60;94.31;100134.75;4870887;29;20350;-82
2022/07/25 12:56:27;;;;;;;8.77;1.97;;;;;;;15.44;94.60;100109.03;4870799;29;20290;-83
2022/07/25 12:58:58;;;;;;;3.90;1.63;;;;;;;15.60;94.39;100114.56;4869696;29;20333;-83
2022/07/25 13:01:29;;;;;;;5.67;2.07;;;;;;;15.78;94.25;100139.34;4870769;29;20290;-83
2022/07/25 13:03:59;;;;;;;4.57;1.70;;;;;;;15.39;94.08;100083.78;4870782;29;20349;-83
2022/07/25 13:06:31;;;;;;;2.03;1.30;;;;;;;15.56;93.72;100085.78;4870808;29;20354;-83
2022/07/25 13:09:07;;;;;;;2.33;1.60;;;;;;;15.47;93.31;100082.56;4870560;29;20381;-83
2022/07/25 13:11:41;;;;;;;4.27;1.67;;;;;;;15.76;93.30;100116.63;4870925;29;20306;-82
2022/07/25 13:14:12;;;;;;;7.70;2.10;;;;;;;15.82;93.02;100140.91;4870964;29;20309;-83
2022/07/25 13:16:43;;;;;;;1.53;1.23;;;;;;;15.54;92.74;100083.19;4871020;29;20350;-83
2022/07/25 13:19:14;;;;;;;5.63;1.60;;;;;;;15.64;92.47;100099.47;4870479;29;20510;-83
2022/07/25 13:21:45;;;;;;;3.13;1.90;;;;;;;15.63;92.04;100105.69;4962220;23;20346;-81
2022/07/25 13:28:23;;;;;;;9.30;1.80;;;;;;;15.74;91.78;100145.66;4881667;29;20731;-83
2022/07/25 13:30:53;;;;;;;7.10;1.90;;;;;;;15.75;92.23;100150.00;4884030;29;20330;-84
2022/07/25 13:33:24;;;;;;;7.93;2.23;;;;;;;15.45;91.96;100100.22;4886948;29;20309;-83
2022/07/25 13:35:55;;;;;;;5.40;2.40;;;;;;;15.75;92.27;100150.00;4887449;29;20382;-83
2022/07/25 13:38:25;;;;;;;3.67;1.80;;;;;;;15.74;92.31;100158.81;4887003;29;20333;-84
2022/07/25 13:40:56;;;;;;;5.73;1.70;;;;;;;15.73;92.18;100154.47;4884326;29;20336;-86
2022/07/25 13:43:29;;;;;;;7.13;1.90;;;;;;;15.49;92.24;100112.34;4880921;29;20792;-82
2022/07/25 13:46:00;;;;;;;7.37;2.20;;;;;;;15.67;92.62;100152.03;4887680;29;20305;-83
2022/07/25 13:48:31;;;;;;;3.47;1.90;;;;;;;15.13;92.56;100076.91;4887427;29;20302;-82
2022/07/25 13:51:02;;;;;;;4.80;1.90;;;;;;;15.62;92.50;100154.00;4888176;29;20290;-87
2022/07/25 13:53:43;;;;;;;2.63;1.67;;;;;;;15.49;92.26;100137.81;4886955;29;20348;-88
2022/07/25 13:56:16;;;;;;;5.00;1.90;;;;;;;15.53;92.36;100145.53;4888335;29;20524;-90
2022/07/25 13:58:50;;;;;;;5.07;1.67;;;;;;;15.25;92.15;100103.63;4887879;29;20236;-88
2022/07/25 14:01:21;;;;;;;6.23;1.93;;;;;;;14.95;91.99;100068.81;4884320;29;20343;-88
2022/07/25 14:03:53;;;;;;;2.07;1.57;;;;;;;15.53;92.32;100158.72;4885385;29;20350;-89
2022/07/25 14:06:27;;;;;;;7.37;1.93;;;;;;;15.51;92.09;100150.00;4887058;29;20305;-94
2022/07/25 14:09:00;;;;;;;3.03;1.60;;;;;;;14.98;91.62;100089.72;4889093;29;20325;-93
2022/07/25 14:11:50;;;;;;;;;;;;;;;;;;;;;
2022/07/25 14:14:29;;;;;;;7.37;1.40;;;;;;;14.96;91.35;100096.81;4888038;29;20286;-88
2022/07/25 14:17:00;;;;;;;5.07;1.23;;;;;;;15.26;91.28;100141.31;4889033;29;20314;-90
2022/07/25 14:19:32;;;;;;;4.43;1.60;;;;;;;14.48;90.89;100041.56;4890237;29;20310;-92
2022/07/25 14:22:06;;;;;;;8.50;1.83;;;;;;;14.58;91.39;100083.28;4889319;29;20361;-90
2022/07/25 14:24:41;;;;;;;4.00;1.50;;;;;;;14.88;91.34;100119.94;4889668;29;20297;-93
2022/07/25 14:27:17;;;;;;;5.27;1.40;;;;;;;14.37;91.39;100047.19;4889536;29;20313;-91
2022/07/25 14:29:54;;;;;;;9.57;1.90;;;;;;;15.04;91.47;100150.00;4888663;29;20493;-92
2022/07/25 14:32:26;;;;;;;6.17;2.07;;;;;;;15.03;91.21;100163.25;4889598;29;20059;-92
2022/07/25 14:35:06;;;;;;;12.40;1.70;;;;;;;14.30;91.33;100022.91;4889814;29;20326;-91
2022/07/25 14:37:53;;;;;;;4.63;1.53;;;;;;;14.53;91.39;100063.31;4889642;29;20286;-92
2022/07/25 14:40:24;;;;;;;3.43;1.30;;;;;;;14.53;91.50;100065.94;4889484;29;20314;-91
2022/07/25 14:42:59;;;;;;;8.33;1.97;;;;;;;15.04;91.55;100131.59;4889489;29;20537;-91
2022/07/25 14:45:35;;;;;;;4.80;1.57;;;;;;;14.56;92.09;100053.56;4889283;29;20329;-92
2022/07/25 14:48:16;;;;;;;4.07;1.90;;;;;;;14.61;92.15;100079.69;4889279;29;20297;-91
2022/07/25 14:51:07;;;;;;;2.50;1.57;;;;;;;14.18;92.27;100018.97;4889511;29;20601;-91
2022/07/25 14:53:38;;;;;;;1.53;1.40;;;;;;;14.66;92.94;100140.88;4889179;29;20296;-91
2022/07/25 14:56:43;;;;;;;2.73;1.57;;;;;;;14.26;94.03;100080.91;4889776;29;20286;-93
2022/07/25 14:59:16;;;;;;;4.93;1.40;;;;;;;14.20;94.78;100080.22;4888558;29;20318;-91
2022/07/25 15:02:02;;;;;;;;;;;;;;;;;;;;;
2022/07/25 15:04:51;;;;;;;7.57;1.80;;;;;;;14.11;95.55;100048.97;4887076;29;20306;-91
2022/07/25 15:07:27;;;;;;;2.60;1.87;;;;;;;13.96;95.81;100012.72;4889031;29;20338;-91
2022/07/25 15:10:01;;;;;;;6.00;1.70;;;;;;;14.37;96.40;100065.59;4887710;29;20316;-90
2022/07/25 15:12:46;;;;;;;7.20;1.30;;;;;;;14.12;96.35;100024.41;4887923;29;20294;-89
2022/07/25 15:15:39;;;;;;;4.30;1.57;;;;;;;14.60;96.46;100099.00;4889125;29;20289;-92
2022/07/25 15:18:32;;;;;;;5.77;1.70;;;;;;;14.07;96.40;99988.72;4889419;29;20349;-92
2022/07/25 15:21:23;;;;;;;4.57;1.67;;;;;;;14.21;95.74;100003.06;4878191;29;20321;-89
2022/07/25 15:24:06;;;;;;;;;;;;;;;;;;;;;
2022/07/25 15:26:38;;;;;;;4.13;1.73;;;;;;;14.69;95.78;100108.34;4887632;29;20309;-89
2022/07/25 15:29:19;;;;;;;3.50;1.40;;;;;;;14.62;95.46;100118.22;4888640;29;20289;-89
2022/07/25 15:31:50;;;;;;;7.67;1.47;;;;;;;14.79;95.35;100125.50;4888364;29;20301;-89
2022/07/25 15:34:22;;;;;;;8.37;1.60;;;;;;;14.82;94.91;100135.91;4888329;29;20317;-90
2022/07/25 15:36:56;;;;;;;3.83;1.50;;;;;;;14.69;94.53;100110.97;4888151;29;20345;-89
2022/07/25 15:39:26;;;;;;;13.17;1.93;;;;;;;14.65;94.23;100124.25;4888166;29;20305;-89
2022/07/25 15:41:57;;;;;;;4.90;1.70;;;;;;;14.53;94.47;100118.53;4887898;29;20294;-89
2022/07/25 15:44:30;;;;;;;7.43;1.37;;;;;;;14.57;94.32;100136.78;4888170;29;20305;-91
2022/07/25 15:47:03;;;;;;;4.73;1.70;;;;;;;13.92;94.68;100050.50;4888481;29;20605;-90